Stations météo

réclame
Mon MeteoGroup
Malmö, Suède (2635): Température de l'air & dewpoint: 11.12.2018 06:00:00 - 17.12.2018 06:00:00 (CET)Malmö, Suède (2635): Vitesse du vent & gusts: 11.12.2018 06:00:00 - 17.12.2018 06:00:00 (CET)Malmö, Suède (2635): Direction du vent: 11.12.2018 06:00:00 - 17.12.2018 06:00:00 (CET)Malmö, Suède (2635): visibility: 11.12.2018 06:00:00 - 17.12.2018 06:00:00 (CET)Malmö, Suède (2635): Quantités de précipitations: 11.12.2018 06:00:00 - 17.12.2018 06:00:00 (CET)
Date & Time tt [°C] td [°C] ff [km/h] ff [knt] fx [km/h] fx [knt] dd vv [km] rr [mm]
17.12.2018 06:00:00 0,0 -2,5 3 1 6 3 SSE 13 0,0
17.12.2018 05:00:00 -0,2 -2,2 3 2 10 5 ESE 11 0,0
17.12.2018 04:00:00 0,4 -3,1 3 1 10 6 SSE 15 0,0
17.12.2018 03:00:00 0,4 -3,0 3 2 10 6 S 16 0,0
17.12.2018 02:00:00 0,5 -3,2 4 2 11 6 S 16 0,0
17.12.2018 01:00:00 0,7 -3,5 7 4 11 6 SSE 17 0,0
17.12.2018 00:00:00 0,9 -3,3 6 3 11 6 SSE 24 0,0
16.12.2018 23:00:00 0,7 -2,6 6 3 11 6 SSE 22 0,0
16.12.2018 22:00:00 0,9 -2,5 5 3 11 6 S 26 0,0
16.12.2018 21:00:00 0,1 -1,0 0 0 6 4 N 11 0,0
16.12.2018 20:00:00 0,3 -1,1 0 0 8 4 N 14 0,0
16.12.2018 19:00:00 0,5 -1,0 3 2 10 5 E 14 0,0
16.12.2018 18:00:00 0,5 -1,1 5 3 10 5 E 15 0,0
16.12.2018 17:00:00 0,6 -0,9 5 3 9 5 ENE 15 0,0
16.12.2018 16:00:00 0,7 -0,4 6 3 13 7 E 12 0,0
16.12.2018 15:00:00 0,7 -0,3 6 3 13 7 E 11 0,0
16.12.2018 14:00:00 0,7 -0,6 5 3 12 7 E 12 0,0
16.12.2018 13:00:00 0,7 -0,9 5 3 18 10 E 13 0,0
16.12.2018 12:00:00 1,3 -1,8 7 4 21 12 ESE 21 0,0
16.12.2018 11:00:00 1,5 -2,1 10 5 21 12 SE 29 0,0
16.12.2018 10:00:00 1,6 -2,6 13 7 19 11 SE 27 0,0
16.12.2018 09:00:00 0,7 -3,1 6 4 22 12 E 47 0,0
16.12.2018 08:00:00 0,7 -3,6 9 5 23 12 ESE 40 0,0
16.12.2018 07:00:00 1,6 -3,3 15 8 23 12 SE 47 0,0
16.12.2018 06:00:00 1,0 0,1 10 5 19 10 ESE 12 0,0
16.12.2018 05:00:00 0,9 0,1 11 6 18 10 E 8 0,0
16.12.2018 04:00:00 0,7 -0,3 6 4 16 9 E 13 0,0
16.12.2018 03:00:00 0,7 -1,2 5 3 16 9 E 17 0,0
16.12.2018 02:00:00 0,8 -0,7 8 4 16 8 ESE 17 0,0
16.12.2018 01:00:00 1,0 -1,0 8 5 22 12 SE 20 0,0
16.12.2018 00:00:00 1,8 -1,0 11 6 23 12 SE 33 0,0
15.12.2018 23:00:00 0,9 0,1 8 4 25 14 SE 15 0,0
15.12.2018 22:00:00 - - - - - - - - -
15.12.2018 21:00:00 1,0 0,7 9 5 17 9 E 10 0,0
15.12.2018 20:00:00 1,1 0,7 7 4 23 12 ESE 18 0,0
15.12.2018 19:00:00 0,9 0,5 10 6 24 13 E 15 0,0
15.12.2018 18:00:00 0,9 0,5 9 5 24 13 E 17 0,0
15.12.2018 17:00:00 1,6 1,0 12 7 23 12 E 9 0,0
15.12.2018 16:00:00 2,0 1,5 7 4 15 8 E 16 0,0
15.12.2018 15:00:00 2,0 1,5 8 4 21 11 ENE 14 0,0
15.12.2018 14:00:00 2,0 1,5 8 5 21 11 E 8 0,0
15.12.2018 13:00:00 1,9 1,4 10 6 21 11 ENE 11 0,0
15.12.2018 12:00:00 2,1 1,6 12 6 21 11 ENE 16 0,0
15.12.2018 11:00:00 1,8 1,5 6 3 19 10 E 14 0,0
15.12.2018 10:00:00 1,5 1,2 9 5 18 10 E 11 0,0
15.12.2018 09:00:00 1,2 1,0 8 5 16 9 E 10 0,0
15.12.2018 08:00:00 1,0 0,8 6 3 10 5 ENE 11 0,0
15.12.2018 07:00:00 0,4 0,1 3 2 9 5 E 5 0,0
15.12.2018 06:00:00 0,4 0,0 0 0 9 5 N 2,6 0,0
15.12.2018 05:00:00 0,9 0,5 4 2 10 6 ENE 13 0,0
15.12.2018 04:00:00 0,8 0,5 5 3 12 6 ENE 13 0,0
15.12.2018 03:00:00 0,8 0,5 5 3 12 6 ENE 15 0,0
15.12.2018 02:00:00 0,8 0,5 6 3 11 6 ENE 16 0,0
15.12.2018 01:00:00 0,6 0,3 7 4 14 8 ENE 12 0,0
15.12.2018 00:00:00 0,7 0,4 6 3 16 9 ENE 14 0,0
14.12.2018 23:00:00 0,6 0,3 5 3 16 8 E 10 0,0
14.12.2018 22:00:00 0,5 0,1 4 2 14 8 E 9 0,0
14.12.2018 21:00:00 0,7 0,4 9 5 16 9 ENE 12 0,0
14.12.2018 20:00:00 0,6 0,3 10 5 16 9 NE 9 0,0
14.12.2018 19:00:00 0,7 0,4 8 5 16 8 ENE 12 0,0
14.12.2018 18:00:00 0,7 0,4 9 5 19 10 ENE 7 0,0
14.12.2018 17:00:00 0,8 0,4 11 6 18 10 ENE 13 0,0
14.12.2018 16:00:00 0,9 0,5 10 5 19 10 NE 17 0,0
14.12.2018 15:00:00 0,8 0,5 10 5 16 9 ENE 16 0,0
14.12.2018 14:00:00 1,0 0,6 8 5 15 8 ENE 19 0,0
14.12.2018 13:00:00 0,7 0,5 6 4 19 10 NE 11 0,0
14.12.2018 12:00:00 0,8 0,5 8 4 19 10 ENE 8 0,0
14.12.2018 11:00:00 0,8 0,4 7 4 18 10 ENE 14 0,0
14.12.2018 10:00:00 0,7 0,2 12 6 18 10 ENE 4,9 0,0
14.12.2018 09:00:00 0,9 0,1 6 3 21 11 ESE 7 0,0
14.12.2018 08:00:00 0,7 0,2 6 3 22 12 NE 10 0,0
14.12.2018 07:00:00 1,0 0,3 10 6 22 12 ENE 27 0,0
14.12.2018 06:00:00 0,5 0,1 3 1 11 6 NE 10 0,0
14.12.2018 05:00:00 0,3 -0,1 4 2 11 6 NE 3,9 0,0
14.12.2018 04:00:00 0,5 0,0 5 3 16 9 NE 7 0,0
14.12.2018 03:00:00 0,6 -0,1 6 4 22 12 ENE 6 0,0
14.12.2018 02:00:00 0,6 -0,2 12 6 22 12 ENE 9 0,0
14.12.2018 01:00:00 0,5 -0,5 5 3 16 8 NE 37 0,0
14.12.2018 00:00:00 0,5 -0,4 7 4 16 8 NE 33 0,0
13.12.2018 23:00:00 0,3 -1,0 7 4 13 7 NE 46 0,0
13.12.2018 22:00:00 -0,3 -1,5 6 4 13 7 NE 43 0,0
13.12.2018 21:00:00 -0,5 -1,7 6 4 19 11 NE 43 0,0
13.12.2018 20:00:00 0,0 -1,7 7 4 22 12 NE 50 0,0
13.12.2018 19:00:00 0,7 -1,3 9 5 22 12 NNE 50 0,0
13.12.2018 18:00:00 0,4 -1,3 10 5 19 11 NE 50 0,0
13.12.2018 17:00:00 0,5 -1,1 6 4 18 10 NE 44 0,0
13.12.2018 16:00:00 1,5 -0,7 11 6 21 12 ENE 47 0,0
13.12.2018 15:00:00 1,8 -0,6 9 5 22 12 NE 50 0,0
13.12.2018 14:00:00 2,0 -0,5 9 5 25 13 NE 50 0,0
13.12.2018 13:00:00 1,9 -0,3 9 5 25 13 NE 47 0,0
13.12.2018 12:00:00 1,6 -0,2 12 7 22 12 ENE 50 0,0
13.12.2018 11:00:00 1,3 -0,5 9 5 19 11 NE 47 0,0
13.12.2018 10:00:00 1,0 -0,6 6 3 19 11 ENE 50 0,0
13.12.2018 09:00:00 0,4 -0,9 5 3 18 10 NE 45 0,0
13.12.2018 08:00:00 0,1 -1,0 10 5 18 10 ENE 40 0,0
13.12.2018 07:00:00 0,1 -1,0 7 4 18 10 NE 41 0,0
13.12.2018 06:00:00 -1,1 -1,9 3 1 14 8 NNE 39 0,0
13.12.2018 05:00:00 -1,0 -2,1 4 2 14 8 NE 50 0,0
13.12.2018 04:00:00 -0,4 -1,8 8 4 14 7 NE 50 0,0
13.12.2018 03:00:00 -0,1 -1,7 3 2 8 4 NNE 50 0,0
13.12.2018 02:00:00 -0,6 -2,1 0 0 11 6 N 48 0,0
13.12.2018 01:00:00 -1,0 -2,4 2 1 11 6 NNE 50 0,0
13.12.2018 00:00:00 -1,5 -2,7 4 2 9 5 N 50 0,0
12.12.2018 23:00:00 -1,4 -2,7 3 2 11 6 N 50 0,0
12.12.2018 22:00:00 -0,9 -2,5 3 2 18 10 NNE 50 0,0
12.12.2018 21:00:00 0,0 -2,0 5 3 18 10 NE 50 0,0
12.12.2018 20:00:00 -0,8 -1,4 4 2 9 5 NE 28 0,0
12.12.2018 19:00:00 -1,1 -2,2 4 2 11 6 NW 31 0,0
12.12.2018 18:00:00 0,0 -1,5 3 2 11 6 NNE 39 0,0
12.12.2018 17:00:00 0,4 -1,1 4 2 22 12 N 47 0,0
12.12.2018 16:00:00 1,5 -0,8 3 2 22 12 N 45 0,0
12.12.2018 15:00:00 3,5 0,5 8 4 21 11 NE 50 0,0
12.12.2018 14:00:00 3,8 1,1 10 5 21 11 ENE 50 0,0
12.12.2018 13:00:00 3,6 1,5 10 5 16 9 ENE 44 0,0
12.12.2018 12:00:00 3,1 1,2 8 4 18 10 ENE 47 0,0
12.12.2018 11:00:00 - - - - - - - - -
12.12.2018 10:00:00 2,1 0,4 5 3 16 8 NE 42 0,0
12.12.2018 09:00:00 0,8 -0,3 5 3 13 7 NE 27 0,0
12.12.2018 08:00:00 0,4 -0,8 3 2 16 9 N 27 0,0
12.12.2018 07:00:00 1,4 -0,4 4 2 22 12 N 49 0,0
12.12.2018 06:00:00 2,5 0,1 8 4 22 12 NE 50 0,0
12.12.2018 05:00:00 2,5 0,0 8 4 21 12 NE 50 0,0
12.12.2018 04:00:00 2,8 0,3 6 3 22 12 NNE 49 0,0
12.12.2018 03:00:00 3,2 0,6 8 4 22 12 NNE 46 0,0
12.12.2018 02:00:00 3,5 1,0 6 3 18 10 N 40 0,0
12.12.2018 01:00:00 4,1 1,3 8 4 19 10 N 44 0,0
12.12.2018 00:00:00 4,0 1,5 5 3 19 10 N 50 0,0
11.12.2018 23:00:00 4,2 1,4 8 5 22 12 N 50 0,0
11.12.2018 22:00:00 4,4 1,2 8 4 22 12 NNE 50 0,0
11.12.2018 21:00:00 4,4 1,3 6 3 18 10 NNE 50 0,0
11.12.2018 20:00:00 4,2 1,5 5 3 23 12 NNE 50 0,0
11.12.2018 19:00:00 4,2 1,5 8 4 23 12 N 50 0,0
11.12.2018 18:00:00 4,4 1,4 9 5 22 12 N 50 0,0
11.12.2018 17:00:00 4,5 1,2 8 4 25 14 N 50 0,0
11.12.2018 16:00:00 4,6 1,1 11 6 27 15 N 50 0,0
11.12.2018 15:00:00 4,7 1,2 10 6 27 15 N 50 0,0
11.12.2018 14:00:00 4,8 1,3 8 5 28 15 N 50 0,0
11.12.2018 13:00:00 4,7 1,5 12 6 29 16 N 50 0,0
11.12.2018 12:00:00 4,9 1,3 11 6 29 16 N 50 0,0
11.12.2018 11:00:00 4,2 1,5 11 6 30 16 N 50 0,0
11.12.2018 10:00:00 4,0 1,3 11 6 29 16 NNW 50 0,0
11.12.2018 09:00:00 3,9 1,3 11 6 34 19 N 50 0,0
11.12.2018 08:00:00 4,0 1,4 15 8 35 19 NNW 50 0,0
11.12.2018 07:00:00 4,1 1,4 16 8 35 19 NNW 50 0,0
11.12.2018 06:00:00 3,8 1,2 14 8 31 17 NNW 50 0,0

tt = Température de l'air
td = dewpoint
ff = Vitesse du vent
fx = gusts
dd = Direction du vent
vv = visibility
rr = Quantités de précipitations

stations d'obs. à proximité